Time;durP1;ratioP1;P1;durP2;ratioP2;P2;SDS_P1;SDS_P2;PMS_P1;PMS_P2;Temp;Humidity;BMP_temperature;BMP_pressure;BME280_temperature;BME280_humidity;BME280_pressure;Samples;Min_cycle;Max_cycle;Signal;HPM_P1;HPM_P2
2022/10/21 00:03:31;;;;;;;3.88;2.70;;;;;;;;;;20992165;28;20052;-64
2022/10/21 00:13:34;;;;;;;3.92;2.70;;;;;;;;;;20977283;28;20067;-63
2022/10/21 00:23:35;;;;;;;3.47;2.00;;;;;;;;;;21006621;28;20087;-61
2022/10/21 00:33:38;;;;;;;4.40;2.22;;;;;;;;;;21006340;28;20049;-62
2022/10/21 00:43:56;;;;;;;2.20;1.50;;;;;;;;;;21004514;28;20085;-63
2022/10/21 00:53:58;;;;;;;4.80;1.90;;;;;;;;;;21004346;28;20120;-61
2022/10/21 01:04:02;;;;;;;3.03;1.30;;;;;;;;;;21003169;28;20056;-66
2022/10/21 01:14:16;;;;;;;2.92;1.88;;;;;;;;;;21003195;28;20071;-64
2022/10/21 01:24:36;;;;;;;4.00;2.75;;;;;;;;;;21001843;28;20040;-65
2022/10/21 01:34:42;;;;;;;6.20;3.40;;;;;;;;;;21000804;28;20053;-64
2022/10/21 01:44:52;;;;;;;7.38;4.65;;;;;;;;;;20999654;28;20546;-64
2022/10/21 01:54:58;;;;;;;6.85;3.97;;;;;;;;;;20999818;28;20142;-62
2022/10/21 02:05:07;;;;;;;5.75;3.30;;;;;;;;;;20998595;28;20480;-63
2022/10/21 02:15:15;;;;;;;9.20;4.22;;;;;;;;;;20998081;28;20136;-61
2022/10/21 02:25:24;;;;;;;9.05;4.75;;;;;;;;;;20997477;28;20048;-61
2022/10/21 02:35:46;;;;;;;6.38;3.53;;;;;;;;;;20996889;28;20117;-61
2022/10/21 02:45:49;;;;;;;6.70;3.22;;;;;;;;;;20995930;28;20102;-64
2022/10/21 02:55:52;;;;;;;8.07;2.67;;;;;;;;;;20995426;28;20051;-64
2022/10/21 03:05:56;;;;;;;3.97;1.10;;;;;;;;;;20978533;28;20040;-61
2022/10/21 03:15:59;;;;;;;3.95;1.00;;;;;;;;;;20995329;28;20394;-65
2022/10/21 03:26:01;;;;;;;1.80;0.60;;;;;;;;;;20994205;28;20141;-62
2022/10/21 03:36:04;;;;;;;3.00;0.70;;;;;;;;;;20994704;28;20063;-62
2022/10/21 03:46:07;;;;;;;2.50;0.70;;;;;;;;;;20994163;28;20102;-65
2022/10/21 03:56:09;;;;;;;2.42;1.13;;;;;;;;;;21008533;28;20048;-63
2022/10/21 04:06:11;;;;;;;3.38;1.10;;;;;;;;;;21007989;28;20064;-63
2022/10/21 04:16:14;;;;;;;3.20;1.30;;;;;;;;;;21007424;28;20048;-65
2022/10/21 04:26:16;;;;;;;3.38;1.00;;;;;;;;;;21006316;28;20045;-63
2022/10/21 04:36:18;;;;;;;4.68;1.50;;;;;;;;;;21006003;28;20052;-67
2022/10/21 04:46:21;;;;;;;3.30;1.58;;;;;;;;;;21004821;28;20063;-64
2022/10/21 04:56:23;;;;;;;2.33;1.50;;;;;;;;;;21004346;28;20056;-62
2022/10/21 05:06:25;;;;;;;3.88;2.03;;;;;;;;;;21003813;28;20098;-63
2022/10/21 05:16:27;;;;;;;5.60;2.00;;;;;;;;;;21003838;28;20058;-62
2022/10/21 05:26:30;;;;;;;3.15;1.75;;;;;;;;;;21002106;28;20048;-61
2022/10/21 05:36:32;;;;;;;3.13;1.70;;;;;;;;;;21001735;28;20527;-65
2022/10/21 05:46:33;;;;;;;1.88;1.00;;;;;;;;;;20999395;28;20056;-62
2022/10/21 05:56:35;;;;;;;4.07;1.23;;;;;;;;;;20999459;28;20048;-63
2022/10/21 06:06:38;;;;;;;2.60;0.98;;;;;;;;;;20998539;28;20045;-62
2022/10/21 06:16:39;;;;;;;1.95;0.88;;;;;;;;;;20997235;28;20463;-63
2022/10/21 06:26:41;;;;;;;24.20;12.50;;;;;;;;;;20997376;28;20048;-63
2022/10/21 06:36:43;;;;;;;4.50;1.35;;;;;;;;;;20996816;28;20481;-61
2022/10/21 06:46:45;;;;;;;9.93;2.80;;;;;;;;;;20995424;28;20044;-61
2022/10/21 06:56:47;;;;;;;3.38;1.30;;;;;;;;;;20996318;28;20489;-61
2022/10/21 07:06:48;;;;;;;4.28;2.28;;;;;;;;;;20995984;28;20044;-61
2022/10/21 07:16:52;;;;;;;6.00;1.80;;;;;;;;;;20995039;28;20508;-61
2022/10/21 07:26:53;;;;;;;7.97;2.13;;;;;;;;;;21006231;28;20052;-60
2022/10/21 07:36:55;;;;;;;6.00;2.22;;;;;;;;;;21012248;28;20063;-64
2022/10/21 07:46:57;;;;;;;5.53;2.75;;;;;;;;;;21010861;28;20378;-62
2022/10/21 07:56:59;;;;;;;9.07;3.80;;;;;;;;;;21009057;28;20080;-62
2022/10/21 08:07:01;;;;;;;6.38;3.75;;;;;;;;;;21008260;28;20052;-62
2022/10/21 08:17:03;;;;;;;13.57;5.18;;;;;;;;;;21008585;28;20400;-62
2022/10/21 08:27:05;;;;;;;9.43;4.82;;;;;;;;;;21008709;28;20503;-62
2022/10/21 08:37:07;;;;;;;8.73;4.75;;;;;;;;;;21005820;28;20087;-63
2022/10/21 08:47:16;;;;;;;5.95;3.70;;;;;;;;;;21005575;28;20070;-63
2022/10/21 08:57:18;;;;;;;7.28;3.70;;;;;;;;;;21005541;28;20052;-62
2022/10/21 09:07:20;;;;;;;7.20;2.28;;;;;;;;;;21003303;28;20045;-61
2022/10/21 09:17:23;;;;;;;4.38;1.70;;;;;;;;;;20998101;28;20041;-62
2022/10/21 09:27:25;;;;;;;5.10;1.98;;;;;;;;;;21001263;28;20055;-64
2022/10/21 09:37:32;;;;;;;4.82;1.83;;;;;;;;;;21002043;28;20083;-61
2022/10/21 09:47:35;;;;;;;4.55;1.20;;;;;;;;;;20999262;28;20063;-63
2022/10/21 09:58:07;;;;;;;3.15;1.10;;;;;;;;;;20993730;28;20466;-69
2022/10/21 10:08:33;;;;;;;2.33;1.20;;;;;;;;;;20662093;28;20050;-64
2022/10/21 10:18:35;;;;;;;2.08;0.80;;;;;;;;;;20596592;28;20134;-63
2022/10/21 10:28:38;;;;;;;4.68;1.75;;;;;;;;;;20579908;28;20051;-62
2022/10/21 10:38:52;;;;;;;1.77;0.70;;;;;;;;;;20651280;28;20137;-62
2022/10/21 10:48:55;;;;;;;4.65;0.80;;;;;;;;;;20858819;28;20052;-60
2022/10/21 10:59:15;;;;;;;3.47;1.02;;;;;;;;;;20995840;28;20123;-63
2022/10/21 11:09:19;;;;;;;3.15;0.85;;;;;;;;;;20994867;28;20139;-63
2022/10/21 11:19:30;;;;;;;5.05;1.00;;;;;;;;;;20994476;28;20055;-62
2022/10/21 11:29:35;;;;;;;2.92;0.95;;;;;;;;;;20994955;28;20557;-62
2022/10/21 11:39:43;;;;;;;2.63;0.90;;;;;;;;;;20987673;28;20495;-59
2022/10/21 11:50:12;;;;;;;3.47;1.05;;;;;;;;;;20993317;28;20055;-65
2022/10/21 12:00:19;;;;;;;6.53;1.30;;;;;;;;;;20654573;28;20082;-67
2022/10/21 12:10:43;;;;;;;4.00;1.37;;;;;;;;;;20652910;28;20402;-66
2022/10/21 12:20:47;;;;;;;7.65;1.70;;;;;;;;;;20652615;28;20097;-66
2022/10/21 12:30:56;;;;;;;5.57;1.10;;;;;;;;;;20757862;28;20052;-65
2022/10/21 12:41:16;;;;;;;3.17;1.10;;;;;;;;;;20986980;28;20127;-59
2022/10/21 12:51:23;;;;;;;4.07;1.25;;;;;;;;;;21004298;28;20045;-61
2022/10/21 13:01:35;;;;;;;8.10;1.60;;;;;;;;;;21004088;28;20118;-59
2022/10/21 13:11:38;;;;;;;5.07;1.08;;;;;;;;;;20986242;28;20052;-59
2022/10/21 13:21:40;;;;;;;8.05;2.28;;;;;;;;;;21002205;28;20088;-61
2022/10/21 13:31:42;;;;;;;7.13;1.40;;;;;;;;;;21001604;28;20048;-61
2022/10/21 13:41:44;;;;;;;3.45;0.95;;;;;;;;;;21000880;28;20070;-58
2022/10/21 13:51:46;;;;;;;4.20;0.70;;;;;;;;;;20981659;28;20063;-62
2022/10/21 14:01:50;;;;;;;5.28;1.20;;;;;;;;;;20998236;28;20044;-60
2022/10/21 14:11:53;;;;;;;3.90;0.82;;;;;;;;;;20997563;28;20100;-59
2022/10/21 14:21:56;;;;;;;2.83;0.80;;;;;;;;;;20996563;28;20122;-59
2022/10/21 14:31:59;;;;;;;3.83;0.85;;;;;;;;;;20995423;28;20049;-60
2022/10/21 14:42:06;;;;;;;3.78;1.10;;;;;;;;;;20995926;28;20412;-60
2022/10/21 14:52:08;;;;;;;3.47;1.00;;;;;;;;;;20995293;28;20048;-62
2022/10/21 15:02:18;;;;;;;2.13;0.63;;;;;;;;;;20994915;28;20480;-59
2022/10/21 15:12:20;;;;;;;3.22;0.85;;;;;;;;;;20977250;28;20092;-58
2022/10/21 15:22:24;;;;;;;5.68;1.00;;;;;;;;;;20994345;28;20386;-62
2022/10/21 15:32:27;;;;;;;4.93;0.98;;;;;;;;;;20993355;28;20503;-64
2022/10/21 15:42:29;;;;;;;4.88;1.67;;;;;;;;;;20994686;28;20052;-63
2022/10/21 15:52:30;;;;;;;3.38;0.80;;;;;;;;;;21009244;28;20130;-61
2022/10/21 16:02:38;;;;;;;4.22;1.52;;;;;;;;;;20991089;28;20041;-62
2022/10/21 16:12:40;;;;;;;7.03;0.83;;;;;;;;;;21007573;28;20433;-68
2022/10/21 16:22:42;;;;;;;4.03;0.95;;;;;;;;;;21006256;28;20087;-69
2022/10/21 16:32:44;;;;;;;7.38;1.10;;;;;;;;;;21006715;28;20079;-64
2022/10/21 16:42:47;;;;;;;2.10;0.80;;;;;;;;;;21006914;28;20048;-63
2022/10/21 16:52:49;;;;;;;3.33;1.25;;;;;;;;;;21004988;28;20106;-63
2022/10/21 17:02:52;;;;;;;3.72;0.80;;;;;;;;;;21003917;28;20046;-62
2022/10/21 17:12:57;;;;;;;2.78;1.00;;;;;;;;;;21006618;28;20048;-72
2022/10/21 17:23:00;;;;;;;3.33;1.05;;;;;;;;;;21003378;28;20045;-64
2022/10/21 17:33:02;;;;;;;1.50;0.60;;;;;;;;;;21001887;28;20063;-69
2022/10/21 17:43:04;;;;;;;5.65;1.10;;;;;;;;;;20999994;28;20045;-62
2022/10/21 17:53:06;;;;;;;10.35;1.98;;;;;;;;;;20999444;28;20052;-71
2022/10/21 18:03:08;;;;;;;3.15;0.90;;;;;;;;;;20998424;28;20044;-70
2022/10/21 18:13:10;;;;;;;2.47;1.30;;;;;;;;;;20998351;28;20075;-67
2022/10/21 18:23:13;;;;;;;6.55;2.47;;;;;;;;;;20978853;28;20040;-66
2022/10/21 18:33:16;;;;;;;3.17;1.08;;;;;;;;;;20996866;28;20421;-67
2022/10/21 18:43:18;;;;;;;3.28;1.23;;;;;;;;;;20995846;28;20049;-60
2022/10/21 18:53:20;;;;;;;3.50;1.10;;;;;;;;;;20995480;28;20051;-63
2022/10/21 19:03:23;;;;;;;5.38;1.52;;;;;;;;;;20995719;28;20071;-60
2022/10/21 19:13:26;;;;;;;4.15;1.05;;;;;;;;;;20995838;28;20489;-60
2022/10/21 19:23:30;;;;;;;8.48;2.80;;;;;;;;;;21006877;28;20174;-60
2022/10/21 19:33:32;;;;;;;6.43;2.05;;;;;;;;;;21012146;28;20136;-61
2022/10/21 19:43:35;;;;;;;5.13;2.00;;;;;;;;;;21010902;28;20070;-61
2022/10/21 19:53:37;;;;;;;4.68;1.80;;;;;;;;;;21010191;28;20052;-60
2022/10/21 20:03:40;;;;;;;3.80;1.42;;;;;;;;;;21009227;28;20048;-61
2022/10/21 20:13:43;;;;;;;6.18;1.90;;;;;;;;;;21007976;28;20056;-61
2022/10/21 20:23:45;;;;;;;5.88;2.10;;;;;;;;;;21009228;28;20048;-61
2022/10/21 20:33:49;;;;;;;5.97;1.92;;;;;;;;;;21006667;28;20496;-62
2022/10/21 20:43:52;;;;;;;6.47;1.75;;;;;;;;;;21007116;28;20055;-61
2022/10/21 20:54:01;;;;;;;4.43;1.75;;;;;;;;;;21006634;28;20617;-62
2022/10/21 21:04:05;;;;;;;7.82;3.55;;;;;;;;;;21006729;28;20053;-60
2022/10/21 21:14:07;;;;;;;8.20;2.97;;;;;;;;;;21005280;28;20060;-61
2022/10/21 21:24:09;;;;;;;6.78;2.97;;;;;;;;;;21004494;28;20048;-60
2022/10/21 21:34:12;;;;;;;6.28;2.67;;;;;;;;;;21004893;28;20055;-62
2022/10/21 21:44:14;;;;;;;8.90;3.97;;;;;;;;;;21001730;28;20053;-60
2022/10/21 21:54:16;;;;;;;12.80;3.90;;;;;;;;;;21003030;28;20396;-61
2022/10/21 22:04:18;;;;;;;7.35;2.80;;;;;;;;;;20993460;28;20055;-61
2022/10/21 22:14:20;;;;;;;10.60;2.33;;;;;;;;;;21000889;28;20052;-61
2022/10/21 22:24:23;;;;;;;5.30;2.22;;;;;;;;;;20999508;28;20078;-61
2022/10/21 22:34:25;;;;;;;8.20;3.10;;;;;;;;;;20998429;28;20135;-60
2022/10/21 22:44:27;;;;;;;6.53;2.30;;;;;;;;;;20997630;28;20508;-62
2022/10/21 22:54:29;;;;;;;6.20;2.05;;;;;;;;;;20996240;28;20049;-62
2022/10/21 23:04:31;;;;;;;2.65;1.38;;;;;;;;;;20999158;28;20425;-61
2022/10/21 23:14:33;;;;;;;6.05;1.90;;;;;;;;;;20979510;28;20060;-61
2022/10/21 23:24:35;;;;;;;6.60;3.83;;;;;;;;;;20979161;28;20052;-61
2022/10/21 23:34:37;;;;;;;3.90;1.45;;;;;;;;;;20994973;28;20052;-60
2022/10/21 23:44:39;;;;;;;5.68;2.08;;;;;;;;;;20998318;28;20099;-60
2022/10/21 23:54:41;;;;;;;2.30;1.20;;;;;;;;;;20995915;28;20052;-61
